createdAt,value
2023-03-13T00:00:16.218Z,62.95
2023-03-13T00:04:38.210Z,63.42
2023-03-13T00:08:40.472Z,57.58
2023-03-13T00:12:42.393Z,61.00
2023-03-13T00:16:44.693Z,54.45
2023-03-13T00:20:48.796Z,45.45
2023-03-13T00:24:51.299Z,55.72
2023-03-13T00:28:53.798Z,57.25
2023-03-13T00:32:55.906Z,49.97
2023-03-13T00:36:58.037Z,52.80
2023-03-13T00:41:14.595Z,56.72
2023-03-13T00:45:16.214Z,53.85
2023-03-13T00:49:18.177Z,44.38
2023-03-13T00:53:21.061Z,50.80
2023-03-13T00:57:23.054Z,51.78
2023-03-13T01:01:28.025Z,51.30
2023-03-13T01:05:30.041Z,52.63
2023-03-13T01:09:34.588Z,50.03
2023-03-13T01:13:36.939Z,49.85
2023-03-13T01:17:38.585Z,42.00
2023-03-13T01:21:43.156Z,52.08
2023-03-13T01:25:45.148Z,49.90
2023-03-13T01:29:47.572Z,53.03
2023-03-13T01:33:54.677Z,55.28
2023-03-13T01:37:56.737Z,46.22
2023-03-13T01:41:58.817Z,49.95
2023-03-13T01:46:05.719Z,45.22
2023-03-13T01:50:23.060Z,48.60
2023-03-13T01:54:36.171Z,44.88
2023-03-13T01:58:38.577Z,49.33
2023-03-13T02:02:46.794Z,53.35
2023-03-13T02:06:53.187Z,47.57
2023-03-13T02:11:14.368Z,43.88
2023-03-13T02:19:42.819Z,44.63
2023-03-13T02:24:21.675Z,38.75
2023-03-13T02:28:33.671Z,40.17
2023-03-13T02:32:37.586Z,34.15
2023-03-13T02:36:40.472Z,32.45
2023-03-13T02:40:46.726Z,35.58
2023-03-13T02:44:50.995Z,40.83
2023-03-13T02:48:55.794Z,30.05
2023-03-13T02:53:03.744Z,31.40
2023-03-13T02:57:07.226Z,36.88
2023-03-13T03:01:09.492Z,31.40
2023-03-13T03:05:14.705Z,35.50
2023-03-13T03:09:18.222Z,29.63
2023-03-13T03:13:20.230Z,33.58
2023-03-13T03:17:22.477Z,29.27
2023-03-13T03:21:24.449Z,31.40
2023-03-13T03:25:27.221Z,33.42
2023-03-13T03:29:29.025Z,28.58
2023-03-13T03:33:32.356Z,28.92
2023-03-13T03:37:34.972Z,29.63
2023-03-13T03:41:38.535Z,32.05
2023-03-13T03:45:41.679Z,32.80
2023-03-13T03:49:44.283Z,35.35
2023-03-13T03:53:48.192Z,32.22
2023-03-13T03:57:50.705Z,29.75
2023-03-13T04:02:03.771Z,25.30
2023-03-13T04:06:07.422Z,24.80
2023-03-13T04:10:10.183Z,28.25
2023-03-13T04:14:18.251Z,28.17
2023-03-13T04:18:21.169Z,24.90
2023-03-13T04:22:23.373Z,26.35
2023-03-13T04:26:30.594Z,25.67
2023-03-13T04:30:34.454Z,28.63
2023-03-13T04:34:54.468Z,27.17
2023-03-13T04:39:11.329Z,29.95
2023-03-13T04:43:32.329Z,25.00
2023-03-13T04:48:06.421Z,25.98
2023-03-13T04:52:31.028Z,29.75
2023-03-13T04:56:45.422Z,23.83
2023-03-13T05:01:06.036Z,22.48
2023-03-13T05:05:28.495Z,26.88
2023-03-13T05:09:33.473Z,34.00
2023-03-13T05:13:53.008Z,36.17
2023-03-13T05:18:12.879Z,30.38
2023-03-13T05:22:24.137Z,34.22
2023-03-13T05:26:44.496Z,30.10
2023-03-13T05:31:15.609Z,29.55
2023-03-13T05:35:32.073Z,30.90
2023-03-13T05:39:57.362Z,29.17
2023-03-13T05:44:18.129Z,31.52
2023-03-13T05:48:38.459Z,26.67
2023-03-13T05:52:52.230Z,30.15
2023-03-13T05:57:23.709Z,30.73
2023-03-13T06:01:43.485Z,35.90
2023-03-13T06:06:08.451Z,33.90
2023-03-13T06:10:15.722Z,30.23
2023-03-13T06:14:17.877Z,35.45
2023-03-13T06:18:38.505Z,40.08
2023-03-13T06:22:41.008Z,34.92
2023-03-13T06:26:43.775Z,41.17
2023-03-13T06:30:45.923Z,42.30
2023-03-13T06:34:48.557Z,41.85
2023-03-13T06:38:51.207Z,50.17
2023-03-13T06:42:53.933Z,48.50
2023-03-13T06:46:55.891Z,43.17
2023-03-13T06:50:57.936Z,51.70
2023-03-13T06:55:01.012Z,52.83
2023-03-13T06:59:03.354Z,50.97
2023-03-13T07:03:05.563Z,49.35
2023-03-13T07:07:07.644Z,57.08
2023-03-13T07:11:11.942Z,53.22
2023-03-13T07:15:14.048Z,43.38
2023-03-13T07:19:16.402Z,44.75
2023-03-13T07:23:18.407Z,47.67
2023-03-13T07:27:21.290Z,43.88
2023-03-13T07:31:26.647Z,43.33
2023-03-13T07:35:28.630Z,47.80
2023-03-13T07:39:30.606Z,41.60
2023-03-13T07:43:32.947Z,39.70
2023-03-13T07:47:35.714Z,36.40
2023-03-13T07:51:43.978Z,44.58
2023-03-13T07:56:00.071Z,35.97
2023-03-13T08:00:02.120Z,34.60
2023-03-13T08:04:14.524Z,33.95
2023-03-13T08:08:16.642Z,30.05
2023-03-13T08:12:18.616Z,34.92
2023-03-13T08:16:28.871Z,29.75
2023-03-13T08:20:30.922Z,31.88
2023-03-13T08:24:32.854Z,36.28
2023-03-13T08:28:36.331Z,29.50
2023-03-13T08:32:38.215Z,28.35
2023-03-13T08:36:41.339Z,28.33
2023-03-13T08:40:43.332Z,30.42
2023-03-13T08:44:45.378Z,26.80
2023-03-13T08:48:55.064Z,28.10
2023-03-13T08:52:57.225Z,27.25
2023-03-13T08:57:00.024Z,25.42
2023-03-13T09:01:03.983Z,27.80
2023-03-13T09:05:06.570Z,26.63
2023-03-13T09:09:10.358Z,25.35
2023-03-13T09:13:13.341Z,24.15
2023-03-13T09:17:15.081Z,26.98
2023-03-13T09:21:22.342Z,21.48
2023-03-13T09:25:24.429Z,26.92
2023-03-13T09:29:26.438Z,21.15
2023-03-13T09:33:28.406Z,22.90
2023-03-13T09:37:30.426Z,19.83
2023-03-13T09:41:40.468Z,19.90
2023-03-13T09:45:46.971Z,21.20
2023-03-13T09:50:03.162Z,17.00
2023-03-13T09:54:19.624Z,19.45
2023-03-13T09:58:24.574Z,21.27
2023-03-13T10:02:47.602Z,19.25
2023-03-13T10:06:49.710Z,15.82
2023-03-13T10:11:02.056Z,19.05
2023-03-13T10:15:10.753Z,19.83
2023-03-13T10:19:16.703Z,17.23
2023-03-13T10:23:43.587Z,15.98
2023-03-13T10:27:51.000Z,19.58
2023-03-13T10:32:01.534Z,19.33
2023-03-13T10:36:09.816Z,18.98
2023-03-13T10:40:25.303Z,22.35
2023-03-13T10:44:33.302Z,26.65
2023-03-13T10:48:37.406Z,14.97
2023-03-13T10:52:45.820Z,19.30
2023-03-13T10:56:48.209Z,22.92
2023-03-13T11:00:50.349Z,22.70
2023-03-13T11:04:54.960Z,23.13
2023-03-13T11:09:04.520Z,15.23
2023-03-13T11:13:06.579Z,18.77
2023-03-13T11:17:24.555Z,21.52
2023-03-13T11:22:11.993Z,13.05
2023-03-13T11:26:27.326Z,19.08
2023-03-13T11:30:47.853Z,16.77
2023-03-13T11:34:57.388Z,21.27
2023-03-13T11:39:23.642Z,18.58
2023-03-13T11:43:55.271Z,17.52
2023-03-13T11:48:18.422Z,21.85
2023-03-13T11:52:52.619Z,16.85
2023-03-13T11:57:03.189Z,18.35
2023-03-13T12:01:11.454Z,17.42
2023-03-13T12:05:18.073Z,20.92
2023-03-13T12:09:33.138Z,20.60
2023-03-13T12:13:41.740Z,19.92
2023-03-13T12:17:50.664Z,18.42
2023-03-13T12:21:57.212Z,21.10
2023-03-13T12:26:10.836Z,14.65
2023-03-13T12:30:39.061Z,14.90
2023-03-13T12:34:53.053Z,21.65
2023-03-13T12:39:01.021Z,16.55
2023-03-13T12:43:10.562Z,18.27
2023-03-13T12:47:21.447Z,21.40
2023-03-13T12:51:29.758Z,18.00
2023-03-13T12:55:52.630Z,18.23
2023-03-13T13:00:00.102Z,17.35
2023-03-13T13:04:07.904Z,23.60
2023-03-13T13:08:24.741Z,24.60
2023-03-13T13:12:27.280Z,23.98
2023-03-13T13:16:31.196Z,19.92
2023-03-13T13:20:34.903Z,25.10
2023-03-13T13:24:48.778Z,31.42
2023-03-13T13:28:51.008Z,25.15
2023-03-13T13:33:16.806Z,18.75
2023-03-13T13:37:21.852Z,25.30
2023-03-13T13:41:33.124Z,24.60
2023-03-13T13:45:39.190Z,26.60
2023-03-13T13:49:54.673Z,23.40
2023-03-13T13:54:04.168Z,26.27
2023-03-13T13:58:12.841Z,26.05
2023-03-13T14:06:24.643Z,31.23
2023-03-13T14:10:36.061Z,20.58
2023-03-13T14:14:38.264Z,40.75
2023-03-13T14:18:41.902Z,26.42
2023-03-13T14:22:49.122Z,31.55
2023-03-13T14:26:51.198Z,32.92
2023-03-13T14:30:56.677Z,36.15
2023-03-13T14:34:58.832Z,35.35
2023-03-13T14:39:01.194Z,30.02
2023-03-13T14:43:04.517Z,36.95
2023-03-13T14:47:09.344Z,29.70
2023-03-13T14:51:20.762Z,24.83
2023-03-13T14:55:22.687Z,31.98
2023-03-13T14:59:28.325Z,32.70
2023-03-13T15:03:32.757Z,28.63
2023-03-13T15:07:40.638Z,29.95
2023-03-13T15:11:54.865Z,24.90
2023-03-13T15:15:57.203Z,22.67
2023-03-13T15:19:59.631Z,28.67
2023-03-13T15:24:10.144Z,19.45
2023-03-13T15:28:18.004Z,25.08
2023-03-13T15:32:27.615Z,23.13
2023-03-13T15:36:31.492Z,19.63
2023-03-13T15:40:33.703Z,20.10
2023-03-13T15:44:35.702Z,20.13
2023-03-13T15:48:38.208Z,25.38
2023-03-13T15:52:40.592Z,32.15
2023-03-13T15:56:42.789Z,22.50
2023-03-13T16:00:45.816Z,28.27
2023-03-13T16:04:48.465Z,20.52
2023-03-13T16:08:50.449Z,32.70
2023-03-13T16:12:53.192Z,24.33
2023-03-13T16:16:55.284Z,23.90
2023-03-13T16:20:57.379Z,19.10
2023-03-13T16:24:59.285Z,23.50
2023-03-13T16:29:01.678Z,23.60
2023-03-13T16:33:03.862Z,21.13
2023-03-13T16:37:14.209Z,17.02
2023-03-13T16:41:21.983Z,25.92
2023-03-13T16:45:24.362Z,15.93
2023-03-13T16:49:26.433Z,22.05
2023-03-13T16:53:28.533Z,16.08
2023-03-13T16:57:30.562Z,24.48
2023-03-13T17:01:33.594Z,20.30
2023-03-13T17:05:35.791Z,25.70
2023-03-13T17:09:37.946Z,17.20
2023-03-13T17:13:39.905Z,27.27
2023-03-13T17:17:44.249Z,19.98
2023-03-13T17:21:47.037Z,20.45
2023-03-13T17:25:49.031Z,24.67
2023-03-13T17:29:51.012Z,18.70
2023-03-13T17:33:53.219Z,19.10
2023-03-13T17:37:55.176Z,17.38
2023-03-13T17:41:57.995Z,17.83
2023-03-13T17:45:59.964Z,18.40
2023-03-13T17:50:01.955Z,17.52
2023-03-13T17:54:04.873Z,19.00
2023-03-13T17:58:06.975Z,16.40
2023-03-13T18:02:11.694Z,19.17
2023-03-13T18:06:22.064Z,19.35
2023-03-13T18:10:26.675Z,18.92
2023-03-13T18:14:28.654Z,16.95
2023-03-13T18:18:31.045Z,16.73
2023-03-13T18:22:32.984Z,13.80
2023-03-13T18:26:37.774Z,14.27
2023-03-13T18:30:39.973Z,18.88
2023-03-13T18:34:42.593Z,17.80
2023-03-13T18:38:48.902Z,16.17
2023-03-13T18:42:51.866Z,16.58
2023-03-13T18:46:53.899Z,14.27
2023-03-13T18:50:55.598Z,21.30
2023-03-13T18:54:57.519Z,14.38
2023-03-13T18:59:00.367Z,13.13
2023-03-13T19:03:02.439Z,21.65
2023-03-13T19:07:11.810Z,18.25
2023-03-13T19:11:14.803Z,13.38
2023-03-13T19:15:17.611Z,16.60
2023-03-13T19:19:21.817Z,14.73
2023-03-13T19:23:23.763Z,14.95
2023-03-13T19:27:25.943Z,16.10
2023-03-13T19:31:28.060Z,19.65
2023-03-13T19:35:30.231Z,18.98
2023-03-13T19:39:32.272Z,14.40
2023-03-13T19:43:34.331Z,13.90
2023-03-13T19:47:36.569Z,14.18
2023-03-13T19:51:39.080Z,17.98
2023-03-13T19:55:41.059Z,16.17
2023-03-13T19:59:43.112Z,18.48
2023-03-13T20:03:46.369Z,15.85
2023-03-13T20:07:48.796Z,14.70
2023-03-13T20:11:51.049Z,16.05
2023-03-13T20:15:53.204Z,18.60
2023-03-13T20:19:55.305Z,17.73
2023-03-13T20:23:58.728Z,15.63
2023-03-13T20:28:00.679Z,16.98
2023-03-13T20:32:04.659Z,15.50
2023-03-13T20:36:10.584Z,17.63
2023-03-13T20:40:13.044Z,17.88
2023-03-13T20:44:15.191Z,14.15
2023-03-13T20:48:17.680Z,13.25
2023-03-13T20:52:19.664Z,20.25
2023-03-13T20:56:22.223Z,14.45
2023-03-13T21:00:24.646Z,15.75
2023-03-13T21:04:26.753Z,14.18
2023-03-13T21:08:28.731Z,13.15
2023-03-13T21:12:30.669Z,16.75
2023-03-13T21:16:32.743Z,21.35
2023-03-13T21:20:34.836Z,13.73
2023-03-13T21:24:36.907Z,14.35
2023-03-13T21:28:40.019Z,15.77
2023-03-13T21:32:42.253Z,16.08
2023-03-13T21:36:44.236Z,15.45
2023-03-13T21:40:46.230Z,15.88
2023-03-13T21:44:48.362Z,19.83
2023-03-13T21:48:50.336Z,14.20
2023-03-13T21:52:52.574Z,17.05
2023-03-13T21:56:54.650Z,16.65
2023-03-13T22:00:57.654Z,20.60
2023-03-13T22:04:59.690Z,14.80
2023-03-13T22:09:03.740Z,18.95
2023-03-13T22:13:07.589Z,17.60
2023-03-13T22:17:16.632Z,17.95
2023-03-13T22:21:19.374Z,14.40
2023-03-13T22:25:21.437Z,13.18
2023-03-13T22:29:24.054Z,17.15
2023-03-13T22:33:26.205Z,12.48
2023-03-13T22:37:28.152Z,15.02
2023-03-13T22:41:30.125Z,15.18
2023-03-13T22:45:34.009Z,13.60
2023-03-13T22:49:36.028Z,14.32
2023-03-13T22:53:40.040Z,20.92
2023-03-13T22:57:42.021Z,12.98
2023-03-13T23:01:44.106Z,13.27
2023-03-13T23:05:47.620Z,15.93
2023-03-13T23:09:49.647Z,15.38
2023-03-13T23:13:51.671Z,20.10
2023-03-13T23:17:53.859Z,16.63
2023-03-13T23:21:55.793Z,14.05
2023-03-13T23:26:02.540Z,15.40
2023-03-13T23:30:06.467Z,18.50
2023-03-13T23:34:08.444Z,16.77
2023-03-13T23:38:12.153Z,17.23
2023-03-13T23:42:14.198Z,18.33
2023-03-13T23:46:18.495Z,18.48
2023-03-13T23:50:20.947Z,20.95
2023-03-13T23:54:23.327Z,17.40
2023-03-13T23:58:25.434Z,18.95
